Patrik Barak

Recruteur en chef - Banik Ostrava
20 Nov 2027
Samedi
Processus

Personnalité

Adaptabilité (19) Ambition (7) Controverse (15) Loyauté (1) Pression (3) Professionnalisme (11) Sportivité (14) Tempérament (2)

Profil

Style d'entraînement Démocratique
Diplôme Continental A
Détermination 11
Gestion des joueurs 4
Motivation 5
Discipline 7
Satisfaction professionnelle
100%
Fatigue
0%
Rôle Recruteur en chef
Salaire 71.8K p/s
Contrat 14.03.2028

Performance

Comportement Bon
Efficacité de l'entraînement
33%
Développement des joueurs
25%
Prévention des blessures
20%
Mise en place tactique
30%

Événements récents

A évalué un joueur maintenant
A participé à une réunion de recrutement maintenant
A participé à une réunion de recrutement maintenant
A recommandé une cible de transfert 7j
A évalué un joueur 7j
Anniversaire 7j
A évalué un joueur 7j
A évalué un joueur 7j

Suivi en cours

215
Joueur Club Statut Capacité Confiance Observé Dernière observation Dernier vote
Trey Nyoni Doncaster Rovers Actif 144 / 145 40% 4 15.11.2027 -
Matvey Bardachev Zenit Actif 109 / 118 40% 2 15.11.2027 -
Felipe Faúndez O'Higgins Actif 90 / 119 40% 3 14.11.2027 -
Archie Gray Leicester City Actif 134 / 158 40% 1 14.11.2027 -
Tiago Gordillo San Miguel Actif 72 / 101 40% 3 13.11.2027 -
Mads Bomholt Lillestrom Actif 99 / 100 40% 1 10.11.2027 -
Kauã Moraes Cruzeiro Actif 122 / 127 40% 1 10.11.2027 -
Adam Aznou Everton Actif 123 / 120 40% 2 08.11.2027 -
Noel Sernelius IFK Norrkoping Actif 119 / 128 40% 1 08.11.2027 -
Joel Ezra Enyimba Actif 93 / 87 40% 1 07.11.2027 -
Dylan Lawlor Cardiff City Actif 111 / 113 40% 1 07.11.2027 -
Matías Canedo Rampla Juniors Actif 69 / 84 40% 1 03.11.2027 -
Lautaro Dufur Rentistas Actif 103 / 111 40% 1 02.11.2027 -
João Teixeira Porto Actif 131 / 125 40% 1 01.11.2027 -
Kubrat Onasci Septemvri Actif 95 / 110 40% 1 01.11.2027 -
Josh Acheampong Oxford United Actif 158 / 161 40% 3 28.10.2027 -
Agustín Medina Lanús Actif 99 / 109 40% 2 27.10.2027 -
Gibril Sosseh Slavia Prague Actif 101 / 121 40% 3 27.10.2027 -
Riquelme Thompson-Jones Shrewsbury Town Actif 120 / 130 40% 2 25.10.2027 -
Santino Baldassarri Quilmes Actif 92 / 109 40% 2 24.10.2027 -
Lucas Høgsberg Paris Saint-Germain Actif 130 / 131 40% 1 24.10.2027 -
Julian Bjørkavåg IK Start Actif 83 / 77 40% 2 23.10.2027 -
Honest Ahanor Atalanta Actif 140 / 136 40% 2 22.10.2027 -
Josh Nichols Tranmere Rovers Actif 103 / 129 40% 2 22.10.2027 -
Chris Rigg Sunderland Actif 128 / 144 40% 1 18.10.2027 -
Toni Tamarit Alverca Actif 106 / 139 40% 1 18.10.2027 -
Jayden Meghoma Peterborough United Actif 108 / 106 40% 2 17.10.2027 -
Ayyoub Bouaddi Blackpool Actif 155 / 165 40% 2 16.10.2027 -
Esteban de Lima Tacuarembo Actif 110 / 95 40% 4 15.10.2027 -
Tobías Ramírez Sevilla Actif 117 / 145 40% 1 15.10.2027 -
Vitor Reis Manchester City Actif 124 / 134 40% 2 14.10.2027 -
Veljko Milosavljević Bournemouth Actif 141 / 148 40% 1 14.10.2027 -
Edvard Pettersen Sandefjord Actif 107 / 99 40% 3 13.10.2027 -
Sheriff Amuda Shooting Stars Actif 97 / 96 40% 2 11.10.2027 -
Matías Argüello Libertad Actif 82 / 87 40% 1 09.10.2027 -
Godwin Oham Warri Wolves Actif 96 / 104 40% 2 08.10.2027 -
Inti Borghetto Patronato Actif 99 / 105 40% 2 07.10.2027 -
Fillip Jenssen Riise Stabaek Actif 94 / 118 40% 1 06.10.2027 -
Camilo Rey Domenech Racing Club Actif 128 / 113 40% 1 05.10.2027 -
Thiago Helguera Braga Actif 109 / 114 40% 1 26.09.2027 -
Lucas Velásquez Huachipato Actif 108 / 97 40% 1 26.09.2027 -
Harrison Armstrong Everton Actif 128 / 137 40% 1 25.09.2027 -
Dayann Methalie Everton Actif 124 / 133 40% 2 24.09.2027 -
Sebastián Caballero Barranquilla Actif 77 / 109 40% 1 24.09.2027 -
Uche Jaguar Kwara United Actif 84 / 87 40% 1 23.09.2027 -
Emmanuel Fully Alverca Actif 85 / 93 40% 1 20.09.2027 -
Ulises Giménez River Plate Actif 109 / 129 40% 2 18.09.2027 -
Ayden Heaven Sheffield Wednesday Actif 139 / 157 40% 1 18.09.2027 -
Salvador Blopá Sporting CP Actif 109 / 115 40% 1 16.09.2027 -
Axel Tape Bayer Leverkusen Actif 116 / 122 40% 1 11.09.2027 -
Eliás Montiel Atlético Madrid Actif 143 / 147 40% 1 10.09.2027 -
Charlie Crew Leeds United Actif 129 / 115 40% 1 07.09.2027 -
Stuart Hawkins Chicago Fire Actif 114 / 99 40% 1 06.09.2027 -
Jan Bačkovský Dukla Prague Actif 113 / 117 55% 1 23.08.2027 -
Aiden Hezarkhani Real Salt Lake Actif 99 / 89 40% 1 13.08.2027 -
Stanislav Hofmann Zbrojovka Brno Actif 117 / 123 55% 1 02.08.2027 -
Martim Cunha Porto Actif 105 / 118 40% 2 28.06.2027 -
Mbekezeli Mbokazi Chicago Fire Perdu 132 / 147 40% 1 28.06.2027 -
Moussa Yeo Swansea City Perdu 122 / 124 40% 1 21.06.2027 -
Tadeáš Hájovský AS Trencin Actif 99 / 101 40% 1 15.06.2027 -
Lukáš Vorlický Slovacko Actif 111 / 127 51% 1 14.06.2027 -
Caio Vidal FC Copenhagen Négociation 128 / 129 63% 1 01.06.2027 Approuver
Sead Hakšabanović Malmo FF Perdu 119 / 119 66% 1 01.06.2027 Approuver
Abu Kamara Portsmouth Actif 102 / 122 40% 2 30.05.2027 -
Malik Mothersille Stockport County Actif 133 / 113 40% 2 29.05.2027 -
Harvey Blair Portsmouth Actif 123 / 108 40% 2 29.05.2027 -
Yousef Salech Cardiff City Actif 126 / 132 40% 9 28.05.2027 -
Amin Sarr Hellas Verona Actif 111 / 136 40% 2 28.05.2027 -
Chibueze Oputa Rangers International Actif 90 / 92 40% 1 28.05.2027 -
Thiago Silvero Sevilla Actif 143 / 129 40% 1 28.05.2027 -
Giorgi Kvernadze Frosinone Actif 141 / 109 40% 6 27.05.2027 -
Jay Stansfield Birmingham Actif 112 / 142 40% 2 27.05.2027 -
Million Manhoef Stoke City Actif 127 / 139 40% 1 27.05.2027 -
Enzo Cardozo Virtus Entella Actif 105 / 104 40% 1 26.05.2027 -
Patrick Agyemang Derby County Actif 113 / 132 40% 6 23.05.2027 -
Fabrizio Cavegn Bristol Rovers Actif 99 / 116 40% 2 23.05.2027 -
Mattéo Tramoni Pisa Actif 149 / 150 40% 1 23.05.2027 -
Álex Valle Como Actif 123 / 126 40% 1 23.05.2027 -
Joe Gelhardt Hull City Actif 119 / 148 40% 6 21.05.2027 -
Luca Moro Padova Actif 139 / 105 40% 1 21.05.2027 -
Andre Brooks Sheffield United Actif 126 / 134 40% 2 20.05.2027 -
Tim Iroegbunam Hull City Actif 149 / 135 40% 1 20.05.2027 -
Mihailo Ivanović Millwall Actif 130 / 127 40% 3 18.05.2027 -
Sindre Walle Egeli Nottingham Forest Actif 112 / 140 40% 1 18.05.2027 -
Josh Coburn Millwall Actif 127 / 107 40% 3 17.05.2027 -
Richard Koné Queens Park Rangers Actif 109 / 122 40% 2 17.05.2027 -
Bradley Fink Wycombe Wanderers Actif 100 / 118 40% 2 16.05.2027 -
Vitinha Genoa Perdu 143 / 142 40% 1 15.05.2027 -
Koki Saito Queens Park Rangers Actif 115 / 112 40% 2 14.05.2027 -
Justin Obikwu Queens Park Rangers Actif 98 / 119 40% 1 14.05.2027 -
Aidan Morris Middlesbrough Actif 138 / 126 40% 1 14.05.2027 -
Jeon Jin-Woo Sheffield Wednesday Actif 142 / 129 40% 2 12.05.2027 -
Sunusi Audu New Edubiase United Actif 75 / 93 40% 2 12.05.2027 -
Zeidane Inoussa Swansea City Actif 109 / 109 40% 1 12.05.2027 -
Žan Vipotnik Swansea City Actif 127 / 121 40% 1 10.05.2027 -
Giuseppe Di Serio Spezia Actif 134 / 108 40% 1 10.05.2027 -
George Brown Sheffield Wednesday Actif 101 / 115 40% 1 09.05.2027 -
Bernat Guiu Virtus Entella Actif 109 / 106 40% 1 07.05.2027 -
Rumarn Burrell Queens Park Rangers Actif 136 / 132 40% 5 06.05.2027 -
Edoardo Bove Watford Actif 139 / 122 40% 1 06.05.2027 -
Robert Mizo Aswan Actif 85 / 115 40% 2 05.05.2027 -
Tyreece Campbell Charlton Athletic Actif 114 / 118 40% 2 05.05.2027 -
Aidomo Emakhu Oxford United Actif 132 / 117 40% 4 03.05.2027 -
Kelly Saravanan Salford City Actif 106 / 123 40% 4 03.05.2027 -
Andrey Ivlev Nizhniy Novgorod Actif 111 / 122 40% 1 03.05.2027 -
Diego Rossi Forli Actif 84 / 78 40% 1 03.05.2027 -
Filippo Distefano Empoli Actif 135 / 125 40% 1 01.05.2027 -
Tomáš Rigo Stoke City Actif 143 / 146 40% 3 29.04.2027 -
Jack McGlynn Stoke City Actif 122 / 147 40% 2 29.04.2027 -
Etiosa Ighodaro Kaizer Chiefs Actif 133 / 118 40% 2 29.04.2027 -
Bojan Radulović Huddersfield Town Actif 131 / 121 40% 2 25.04.2027 -
Sam Bell Bristol City Actif 131 / 134 40% 2 25.04.2027 -
Prince Adu Kwabena Viktoria Plzen Actif 129 / 126 40% 9 24.04.2027 -
Gonçalo Oliveira Benfica Actif 123 / 108 40% 2 24.04.2027 -
Timotej Hranica MSK Zilina Actif 95 / 117 40% 1 24.04.2027 -
Mohamed-Ali Cho Hull City Actif 149 / 144 40% 1 22.04.2027 -
Max Johnston Derby County Actif 129 / 121 40% 1 21.04.2027 -
Moncef Zekri Sporting CP Actif 111 / 89 40% 1 21.04.2027 -
Riyad Idrissi Torino Actif 107 / 137 40% 1 21.04.2027 -
Santiago Pierotti Lecce Actif 115 / 111 40% 1 17.04.2027 -
Andy Irving Sparta Prague Actif 128 / 133 40% 3 16.04.2027 -
Matej Trusa DAC Dunajska Streda Actif 127 / 110 40% 2 16.04.2027 -
Sam Greenwood Bristol City Actif 113 / 115 40% 3 16.04.2027 -
Jovon Makama Norwich City Actif 122 / 135 40% 2 13.04.2027 -
Dale Taylor Blackpool Actif 93 / 114 40% 3 12.04.2027 -
Willem Geubbels Lecce Actif 141 / 131 40% 2 12.04.2027 -
Raimonds Krollis Slovan Liberec Actif 109 / 107 40% 3 11.04.2027 -
Isaac Price West Bromwich Albion Actif 146 / 128 40% 2 10.04.2027 -
John Yeboah Venezia Actif 138 / 125 40% 1 08.04.2027 -
Cameron Archer Southampton Actif 123 / 139 40% 4 05.04.2027 -
Edmund Inusah WAFA Actif 87 / 70 40% 1 04.04.2027 -
T-Jay Parfitt Cardiff City Actif 93 / 95 40% 1 04.04.2027 -
Konan N'Dri Lecce Actif 146 / 110 40% 2 02.04.2027 -
George Earthy Reading Actif 103 / 105 40% 1 02.04.2027 -
Jalen Blesa Rio Ave Actif 131 / 120 40% 3 31.03.2027 -
Ebrima Singhateh Jablonec Actif 113 / 117 40% 5 28.03.2027 -
Shea Charles Southampton Actif 143 / 132 40% 2 27.03.2027 -
Harry Clarke Preston Actif 132 / 138 40% 1 27.03.2027 -
Myles Peart-Harris Oxford United Actif 128 / 124 40% 2 25.03.2027 -
Freddie Draper Lincoln City Actif 122 / 111 40% 1 23.03.2027 -
Mathias Jørgensen Blackburn Rovers Actif 140 / 102 40% 2 22.03.2027 -
Ali Youssef Apollon Actif 116 / 116 40% 1 21.03.2027 -
Victor Ehibe Gazelle Garoua Actif 78 / 98 40% 1 19.03.2027 -
Jerome Karelse Golden Arrows Actif 121 / 104 40% 5 17.03.2027 -
Lorent Tolaj Plymouth Argyle Actif 111 / 124 40% 1 16.03.2027 -
Aune Heggebø West Bromwich Albion Actif 129 / 119 40% 3 15.03.2027 -
Tommaso Cecotti Carpi Actif 104 / 88 40% 1 15.03.2027 -
Daniel Vernattus Metalist Actif 88 / 98 40% 1 15.03.2027 -
Mojmír Chytil Hajduk Split Actif 130 / 146 40% 7 14.03.2027 -
Lamine Cissé Peterborough United Actif 106 / 116 40% 3 12.03.2027 -
Tshepang Moremi Orlando Pirates Actif 116 / 104 40% 3 07.03.2027 -
Kasey McAteer Ipswich Town Actif 122 / 112 40% 1 07.03.2027 -
Fraser Murray Wigan Athletic Actif 136 / 115 40% 2 06.03.2027 -
Ali Ahmed Norwich City Actif 127 / 118 40% 1 05.03.2027 -
Armstrong Oko-Flex Levski Actif 125 / 121 40% 1 04.03.2027 -
Maeson King Blackpool Actif 90 / 131 40% 1 02.03.2027 -
Paris Maghoma Norwich City Actif 111 / 105 40% 1 25.02.2027 -
John Mercado Sparta Prague Actif 120 / 129 40% 1 19.02.2027 -
Scott Twine Bristol City Actif 125 / 107 40% 1 14.02.2027 -
Tom Fellows Southampton Actif 111 / 116 40% 1 09.02.2027 -
Marezi Portsmouth Actif 125 / 125 40% 1 07.02.2027 -
Tariq Lamptey Queens Park Rangers Actif 140 / 143 40% 1 07.02.2027 -
Dario Grgić Sigma Olomouc Actif 103 / 108 40% 1 05.02.2027 -
Lukáš Mašek Slovan Liberec Actif 123 / 116 40% 4 04.02.2027 -
Baboucarr Faal Viktoria Plzen Actif 105 / 99 40% 3 03.02.2027 -
Radek Šiler Podbrezova Actif 105 / 118 40% 3 02.02.2027 -
Adam Idah Swansea City Actif 121 / 134 40% 1 02.02.2027 -
Nino Marcelli Slovan Bratislava Actif 116 / 121 40% 1 02.02.2027 -
Alexis Alégué Zbrojovka Brno Actif 110 / 124 48% 1 06.01.2027 -
Mayckel Lahdo Malmo FF Perdu 125 / 127 66% 1 01.01.2027 -
Matěj Koubek MFK Ruzomberok Actif 99 / 102 40% 4 28.12.2026 -
David Látal Slovacko Actif 101 / 103 40% 2 28.12.2026 -
Jacques Ekomié Wrexham Actif 126 / 123 40% 1 25.12.2026 -
David Jurásek Slavia Prague Actif 111 / 126 40% 2 22.12.2026 -
Ammar Ramadan DAC Dunajska Streda Actif 116 / 113 40% 2 22.12.2026 -
Matěj Ryneš Sparta Prague Actif 126 / 113 40% 1 22.12.2026 -
Brayan Gil Baltika Actif 131 / 118 40% 1 22.12.2026 -
Michal Sadílek Slavia Prague Actif 130 / 143 40% 2 19.12.2026 -
Václav Sejk Sigma Olomouc Actif 104 / 107 40% 2 19.12.2026 -
Aaron Connolly Ruch Actif 132 / 111 40% 3 15.12.2026 -
Florentino Luís Ipswich Town Actif 136 / 134 40% 1 15.12.2026 -
Filip Kaloč Ludogorets Actif 120 / 117 40% 2 10.12.2026 -
Welington Southampton Actif 124 / 119 40% 1 10.12.2026 -
Danijel Šturm Slavia Prague Actif 124 / 100 40% 1 01.12.2026 -
Merchas Doski Viktoria Plzen Actif 121 / 110 40% 1 01.12.2026 -
Alessio Zerbin Frosinone Actif 141 / 128 40% 1 01.12.2026 -
David Miculescu FCSB Actif 108 / 115 40% 2 29.11.2026 Plus d'infos
Claudy M'Buyi Rapid Wien Actif 116 / 126 40% 1 21.11.2026 -
Pablo Rodríguez Lech Actif 116 / 135 40% 1 19.11.2026 -
Kelvin Yeboah Minnesota United FC Actif 123 / 118 40% 1 18.11.2026 -
Kévin Denkey FC Cincinnati Actif 118 / 146 40% 1 17.11.2026 -
Lukáš Červ Viktoria Plzen Actif 145 / 122 40% 1 13.11.2026 -
Marin Benko Zadar Actif 125 / 117 40% 1 13.11.2026 -
Camilo Durán Bloemfontein Celtic Actif 132 / 109 40% 2 08.11.2026 -
Tomás Chancalay Minnesota United FC Actif 125 / 120 40% 1 08.11.2026 -
Joaquín Pereyra Minnesota United FC Actif 136 / 120 40% 1 08.11.2026 -
Bienvenue Kanakimana Zbrojovka Brno Actif 102 / 111 40% 1 07.11.2026 -
Iván Angulo Orlando City Actif 112 / 109 40% 1 07.11.2026 -
Ki-Jana Hoever Sparta Prague Actif 112 / 114 40% 1 06.11.2026 -
Martín Ojeda Orlando City Actif 121 / 126 40% 1 05.11.2026 -
Matyáš Vojta Sparta Prague Actif 123 / 123 40% 1 05.11.2026 -
Cheick Oumar Souaré Viktoria Plzen Actif 125 / 138 40% 2 04.11.2026 -
Luca Langoni New England Revolution Actif 109 / 112 40% 3 29.10.2026 -
Maurice Malone Minnesota United FC Actif 114 / 127 40% 1 29.10.2026 -
Václav Drchal Bohemians 1905 Actif 103 / 121 40% 1 23.10.2026 -
Aljoša Matko Ujpest Actif 112 / 115 40% 1 19.10.2026 -
Maclyn Biokpo Jenewari Rivers United Actif 88 / 102 40% 2 16.10.2026 -
Demba Seck Partizan Actif 117 / 131 40% 1 16.10.2026 -
Christian Krasnodar Actif 133 / 131 40% 1 16.10.2026 -
Ştefan Baiaram Universitatea Craiova Actif 131 / 111 40% 1 14.10.2026 Plus d'infos
David Da Costa Portland Timbers Actif 117 / 116 40% 1 13.10.2026 -
Tadeo Allende Inter Miami CF Actif 136 / 111 40% 1 12.10.2026 -
Agustín Anello Philadelphia Union Actif 143 / 120 40% 1 06.10.2026 -
Mykola Kukharevych Slovan Bratislava Actif 107 / 124 40% 1 05.10.2026 -
Luciano Vietto Villarreal Actif 107 / 129 40% 1 02.08.2026 -